Clara, Argentina
Current Conditions -  °F | °C
As of 9:00 PM on Friday 24 Oct 2014 (Local Time) from SUSO Reporting Station
Clear Clear  
Wind Chill: 73°   Ceiling: Unl
Heat Index: 73°   Visibility: 6mi
Dew Point: 61°   Wind: 7mph
Humidity: 65%   Direction: 170°S
Pressure: 29.88"   Gusts: NA
Location:  31.83°S, 58.82°W
Report Text: SUSO 250000Z 17006KT CAVOK 23/16 Q1012
Loading
Personal Weather Stations






























Interactive Weather Map New forecast layout! Learn more

10-Day Weather Forecast

Advertisements
Track Severe Weather on mobile